Time;durP1;ratioP1;P1;durP2;ratioP2;P2;SDS_P1;SDS_P2;PMS_P1;PMS_P2;Temp;Humidity;BMP_temperature;BMP_pressure;BME280_temperature;BME280_humidity;BME280_pressure;Samples;Min_cycle;Max_cycle;Signal;HPM_P1;HPM_P2
2021/12/30 00:00:36;;;;;;;59.33;28.40;;;19.90;48.30;;;;;;5033436;28;20199;-67
2021/12/30 00:03:04;;;;;;;66.15;31.40;;;19.90;48.30;;;;;;5016060;28;20202;-66
2021/12/30 00:05:32;;;;;;;65.15;28.75;;;19.90;48.30;;;;;;5015132;28;20192;-67
2021/12/30 00:07:59;;;;;;;57.60;26.48;;;19.90;48.50;;;;;;5015587;28;20310;-68
2021/12/30 00:10:26;;;;;;;62.88;27.55;;;19.90;49.10;;;;;;5033456;28;20192;-67
2021/12/30 00:12:54;;;;;;;57.58;26.10;;;19.90;48.50;;;;;;5015528;28;20202;-67
2021/12/30 00:15:21;;;;;;;56.17;26.70;;;19.90;48.50;;;;;;5015660;28;20224;-67
2021/12/30 00:17:48;;;;;;;55.03;25.48;;;19.90;48.50;;;;;;5015536;28;20227;-69
2021/12/30 00:20:16;;;;;;;54.42;25.70;;;19.90;48.50;;;;;;5017066;28;20610;-67
2021/12/30 00:22:44;;;;;;;55.03;26.67;;;19.90;48.60;;;;;;5031851;28;20262;-67
2021/12/30 00:25:11;;;;;;;55.22;25.42;;;19.80;48.50;;;;;;5033230;28;20216;-67
2021/12/30 00:27:39;;;;;;;55.50;26.00;;;19.80;48.60;;;;;;5015455;28;20216;-69
2021/12/30 00:30:08;;;;;;;56.47;25.50;;;19.80;48.50;;;;;;5015334;28;20222;-66
2021/12/30 00:32:36;;;;;;;57.58;25.42;;;19.80;48.60;;;;;;5015330;28;20211;-65
2021/12/30 00:35:03;;;;;;;54.95;25.10;;;19.80;48.60;;;;;;5031927;28;20310;-67
2021/12/30 00:37:31;;;;;;;51.65;24.73;;;19.80;48.60;;;;;;5033000;28;20243;-69
2021/12/30 00:39:59;;;;;;;50.78;25.48;;;19.80;48.60;;;;;;5031863;28;20250;-69
2021/12/30 00:42:26;;;;;;;48.55;23.92;;;19.70;48.50;;;;;;5015306;28;20192;-65
2021/12/30 00:44:53;;;;;;;44.88;24.00;;;19.70;48.60;;;;;;5015324;28;20196;-68
2021/12/30 00:47:20;;;;;;;51.67;24.58;;;19.70;48.60;;;;;;5015361;28;20726;-68
2021/12/30 00:49:47;;;;;;;44.58;23.05;;;19.70;48.70;;;;;;5015526;28;20686;-66
2021/12/30 00:52:14;;;;;;;53.40;24.45;;;19.70;48.70;;;;;;5015582;28;20609;-66
2021/12/30 00:54:43;;;;;;;47.35;22.70;;;19.70;48.70;;;;;;5015473;28;20240;-68
2021/12/30 00:57:10;;;;;;;48.28;23.55;;;19.70;48.70;;;;;;5015350;28;20219;-69
2021/12/30 00:59:37;;;;;;;41.78;22.42;;;19.60;48.70;;;;;;5033156;28;20212;-65
2021/12/30 01:02:04;;;;;;;48.40;21.67;;;19.70;48.80;;;;;;5015875;28;20227;-69
2021/12/30 01:04:32;;;;;;;43.42;21.63;;;19.60;48.70;;;;;;5016622;28;20196;-69
2021/12/30 01:06:59;;;;;;;39.83;20.17;;;19.60;48.70;;;;;;5017861;28;20216;-68
2021/12/30 01:09:26;;;;;;;40.70;21.38;;;19.60;48.70;;;;;;5036206;28;20196;-66
2021/12/30 01:11:55;;;;;;;48.00;22.42;;;19.60;48.80;;;;;;5036863;28;20207;-69
2021/12/30 01:14:25;;;;;;;41.50;21.65;;;19.60;48.80;;;;;;5034414;28;20188;-69
2021/12/30 01:16:56;;;;;;;43.55;22.10;;;19.60;48.90;;;;;;5021837;28;20259;-68
2021/12/30 01:19:42;;;;;;;38.85;20.65;;;19.60;48.90;;;;;;5023630;28;20253;-69
2021/12/30 01:22:10;;;;;;;43.15;20.90;;;19.50;48.80;;;;;;5020980;28;20207;-67
2021/12/30 01:24:37;;;;;;;34.97;18.95;;;19.60;48.90;;;;;;5021005;28;20200;-69
2021/12/30 01:27:06;;;;;;;36.40;19.25;;;19.50;49.00;;;;;;5020920;28;20303;-69
2021/12/30 01:29:33;;;;;;;39.30;20.42;;;19.50;48.90;;;;;;5038386;28;20267;-66
2021/12/30 01:32:01;;;;;;;41.35;21.10;;;19.50;48.90;;;;;;5037637;28;20235;-68
2021/12/30 01:34:28;;;;;;;35.97;19.30;;;19.50;49.00;;;;;;5021130;28;20283;-69
2021/12/30 01:36:55;;;;;;;43.05;19.80;;;19.40;48.90;;;;;;5039701;28;20227;-67
2021/12/30 01:39:22;;;;;;;41.13;19.33;;;19.40;49.00;;;;;;5025343;28;20267;-67
2021/12/30 01:41:49;;;;;;;39.50;19.38;;;19.40;49.10;;;;;;5024465;28;20192;-68
2021/12/30 01:44:18;;;;;;;39.47;19.25;;;19.40;49.00;;;;;;5024025;28;20211;-68
2021/12/30 01:46:45;;;;;;;35.90;19.40;;;19.40;49.00;;;;;;5023019;28;20226;-66
2021/12/30 01:49:13;;;;;;;35.97;18.92;;;19.40;49.10;;;;;;5022263;28;20200;-67
2021/12/30 01:51:40;;;;;;;33.15;18.55;;;19.40;49.10;;;;;;5022206;28;20192;-67
2021/12/30 01:54:08;;;;;;;37.80;18.65;;;19.40;49.20;;;;;;5021382;28;20200;-67
2021/12/30 01:56:34;;;;;;;38.20;18.20;;;19.40;49.20;;;;;;5037871;28;20223;-66
2021/12/30 01:59:02;;;;;;;35.17;17.70;;;19.40;49.20;;;;;;5036933;28;20535;-67
2021/12/30 02:01:31;;;;;;;37.58;18.98;;;19.40;49.20;;;;;;5018434;28;20226;-68
2021/12/30 02:03:58;;;;;;;37.33;18.17;;;19.30;49.00;;;;;;5035190;28;20196;-67
2021/12/30 02:06:25;;;;;;;36.92;17.88;;;19.30;49.20;;;;;;5018684;28;20227;-65
2021/12/30 02:08:53;;;;;;;35.13;18.35;;;19.30;49.20;;;;;;5035161;28;20203;-68
2021/12/30 02:11:20;;;;;;;32.17;18.02;;;19.30;49.10;;;;;;5018446;28;20272;-68
2021/12/30 02:13:49;;;;;;;32.60;16.58;;;19.30;49.20;;;;;;5037209;28;20192;-67
2021/12/30 02:16:17;;;;;;;34.95;17.77;;;19.30;49.20;;;;;;5017847;28;20326;-65
2021/12/30 02:18:45;;;;;;;32.17;17.20;;;19.30;49.20;;;;;;5018307;28;20259;-67
2021/12/30 02:21:14;;;;;;;29.92;16.98;;;19.30;49.20;;;;;;5018509;28;20227;-66
2021/12/30 02:23:41;;;;;;;30.52;16.23;;;19.30;49.20;;;;;;5018813;28;20204;-68
2021/12/30 02:26:09;;;;;;;33.30;16.50;;;19.30;49.90;;;;;;5018235;28;20218;-66
2021/12/30 02:28:37;;;;;;;31.17;16.17;;;19.20;49.20;;;;;;5017347;28;20224;-66
2021/12/30 02:31:07;;;;;;;31.50;15.68;;;19.20;49.20;;;;;;5035403;28;20227;-68
2021/12/30 02:33:35;;;;;;;32.13;16.77;;;19.20;49.20;;;;;;5035492;28;20188;-68
2021/12/30 02:36:01;;;;;;;31.25;15.82;;;19.20;49.20;;;;;;5033683;28;20578;-69
2021/12/30 02:38:30;;;;;;;28.15;15.00;;;19.20;49.20;;;;;;5017495;28;20288;-66
2021/12/30 02:40:58;;;;;;;29.73;15.95;;;19.20;49.20;;;;;;5017448;28;20203;-66
2021/12/30 02:43:26;;;;;;;28.30;15.35;;;19.20;49.90;;;;;;5034786;28;20223;-67
2021/12/30 02:45:53;;;;;;;28.77;15.85;;;19.20;49.30;;;;;;5017154;28;20200;-69
2021/12/30 02:48:22;;;;;;;26.20;14.68;;;19.20;49.30;;;;;;5017310;28;20231;-67
2021/12/30 02:50:50;;;;;;;27.52;15.85;;;19.20;49.40;;;;;;5017018;28;20202;-67
2021/12/30 02:53:17;;;;;;;28.77;15.20;;;19.20;49.30;;;;;;5017069;28;20200;-67
2021/12/30 02:55:45;;;;;;;30.20;15.85;;;19.10;49.30;;;;;;5034710;28;20240;-67
2021/12/30 02:58:12;;;;;;;28.17;14.63;;;19.10;49.20;;;;;;5017027;28;20270;-67
2021/12/30 03:00:40;;;;;;;27.13;14.10;;;19.10;49.20;;;;;;5017210;28;20196;-67
2021/12/30 03:03:06;;;;;;;28.20;15.55;;;19.10;49.40;;;;;;5016721;28;20200;-66
2021/12/30 03:05:34;;;;;;;23.60;13.18;;;19.10;49.40;;;;;;5033444;28;20549;-68
2021/12/30 03:08:01;;;;;;;26.30;14.00;;;19.10;49.50;;;;;;5034371;28;20212;-68
2021/12/30 03:10:28;;;;;;;28.02;16.13;;;19.10;49.50;;;;;;5016460;28;20246;-67
2021/12/30 03:13:03;;;;;;;24.77;13.68;;;19.10;49.50;;;;;;5033123;28;20207;-69
2021/12/30 03:15:32;;;;;;;28.42;14.70;;;19.10;49.50;;;;;;5033321;28;20277;-66
2021/12/30 03:18:00;;;;;;;24.15;13.38;;;19.10;49.50;;;;;;5016749;28;20223;-67
2021/12/30 03:20:26;;;;;;;23.75;13.70;;;19.00;49.40;;;;;;5016232;28;20669;-67
2021/12/30 03:22:53;;;;;;;23.90;13.88;;;19.00;49.40;;;;;;5016246;28;20660;-66
2021/12/30 03:25:20;;;;;;;25.73;13.35;;;19.00;49.40;;;;;;5034082;28;20191;-66
2021/12/30 03:27:48;;;;;;;24.92;13.95;;;19.00;49.40;;;;;;5016343;28;20326;-69
2021/12/30 03:30:17;;;;;;;24.88;13.38;;;19.00;49.40;;;;;;5016362;28;20188;-68
2021/12/30 03:32:44;;;;;;;21.88;13.43;;;19.00;49.40;;;;;;5016363;28;20188;-66
2021/12/30 03:35:11;;;;;;;22.48;12.77;;;19.00;49.40;;;;;;5016285;28;20200;-66
2021/12/30 03:37:39;;;;;;;24.42;13.32;;;19.00;49.40;;;;;;5033858;28;20574;-67
2021/12/30 03:40:07;;;;;;;22.25;12.25;;;19.00;49.40;;;;;;5015016;28;20692;-67
2021/12/30 03:42:35;;;;;;;24.00;13.77;;;19.00;49.40;;;;;;5032557;28;20294;-67
2021/12/30 03:45:02;;;;;;;19.83;11.80;;;19.00;49.40;;;;;;5015909;28;20216;-66
2021/12/30 03:47:31;;;;;;;20.55;12.05;;;19.00;49.40;;;;;;5016037;28;20688;-69
2021/12/30 03:49:59;;;;;;;24.67;12.65;;;19.00;49.40;;;;;;5015844;28;20192;-68
2021/12/30 03:52:30;;;;;;;22.90;12.77;;;19.00;49.40;;;;;;5032169;28;20200;-65
2021/12/30 03:54:57;;;;;;;20.63;11.98;;;19.00;49.50;;;;;;5031961;28;20211;-67
2021/12/30 03:57:24;;;;;;;20.83;11.70;;;19.00;49.40;;;;;;5033123;28;20230;-66
2021/12/30 03:59:50;;;;;;;21.45;11.95;;;19.00;49.50;;;;;;5033309;28;20270;-69
2021/12/30 04:02:17;;;;;;;19.55;10.82;;;19.00;49.60;;;;;;5032959;28;20188;-67
2021/12/30 04:04:46;;;;;;;19.00;10.10;;;19.00;49.70;;;;;;5031963;28;20196;-66
2021/12/30 04:07:14;;;;;;;18.42;10.40;;;19.00;49.90;;;;;;5032110;28;20295;-67
2021/12/30 04:09:42;;;;;;;16.20;10.55;;;19.00;49.90;;;;;;5015311;28;20196;-69
2021/12/30 04:12:09;;;;;;;17.02;10.57;;;19.00;49.80;;;;;;5032950;28;20279;-67
2021/12/30 04:14:37;;;;;;;19.60;11.48;;;19.00;49.70;;;;;;5031718;28;20671;-67
2021/12/30 04:17:04;;;;;;;17.48;10.93;;;19.00;49.70;;;;;;5032729;28;20274;-69
2021/12/30 04:19:32;;;;;;;16.52;9.85;;;19.00;50.20;;;;;;5031516;28;20295;-69
2021/12/30 04:22:00;;;;;;;20.33;10.35;;;19.00;49.60;;;;;;5015128;28;20200;-67
2021/12/30 04:24:27;;;;;;;18.23;10.45;;;19.00;49.60;;;;;;5031758;28;20258;-69
2021/12/30 04:26:54;;;;;;;19.60;11.60;;;19.00;49.40;;;;;;5015153;28;20227;-66
2021/12/30 04:29:22;;;;;;;17.60;10.20;;;19.10;49.40;;;;;;5032707;28;20195;-69
2021/12/30 04:31:49;;;;;;;20.17;11.60;;;19.10;49.20;;;;;;5031395;28;20618;-66
2021/12/30 04:34:16;;;;;;;19.17;10.25;;;19.20;49.20;;;;;;5015291;28;20211;-66
2021/12/30 04:36:43;;;;;;;20.20;11.05;;;19.20;49.10;;;;;;5015021;28;20303;-68
2021/12/30 04:39:11;;;;;;;17.02;10.10;;;19.20;49.00;;;;;;5031331;28;20192;-68
2021/12/30 04:41:38;;;;;;;18.10;10.32;;;19.20;48.90;;;;;;5014842;28;20675;-67
2021/12/30 04:44:06;;;;;;;19.30;11.13;;;19.30;48.80;;;;;;5015087;28;20200;-67
2021/12/30 04:46:36;;;;;;;19.08;10.05;;;19.30;48.80;;;;;;5014934;28;20212;-68
2021/12/30 04:49:04;;;;;;;18.00;9.82;;;19.30;48.80;;;;;;5015097;28;20675;-67
2021/12/30 04:51:31;;;;;;;19.35;11.27;;;19.40;48.80;;;;;;5035581;28;20568;-68
2021/12/30 04:53:58;;;;;;;15.60;9.30;;;19.40;48.70;;;;;;5018911;28;20223;-65
2021/12/30 04:56:26;;;;;;;14.73;9.25;;;19.40;48.80;;;;;;5036688;28;20549;-67
2021/12/30 04:58:54;;;;;;;14.32;8.60;;;19.40;48.70;;;;;;5018729;28;20200;-67
2021/12/30 05:01:21;;;;;;;18.55;10.43;;;19.40;48.80;;;;;;5018788;28;20279;-65
2021/12/30 05:03:48;;;;;;;15.10;9.32;;;19.40;48.60;;;;;;5036480;28;20184;-67
2021/12/30 05:06:15;;;;;;;13.20;8.70;;;19.40;48.70;;;;;;5018775;28;20246;-68
2021/12/30 05:08:43;;;;;;;14.15;9.05;;;19.40;48.70;;;;;;5018508;28;20202;-67
2021/12/30 05:11:10;;;;;;;14.63;9.20;;;19.40;48.80;;;;;;5018856;28;20195;-67
2021/12/30 05:13:39;;;;;;;13.13;8.48;;;19.40;48.80;;;;;;5035128;28;20211;-67
2021/12/30 05:16:06;;;;;;;16.73;9.10;;;19.40;48.70;;;;;;5036001;28;20711;-68
2021/12/30 05:18:33;;;;;;;15.20;9.60;;;19.40;48.70;;;;;;5035086;28;20212;-66
2021/12/30 05:21:01;;;;;;;14.27;9.32;;;19.40;48.70;;;;;;5018881;28;20227;-67
2021/12/30 05:23:28;;;;;;;15.52;9.40;;;19.40;48.70;;;;;;5019113;28;20652;-68
2021/12/30 05:25:56;;;;;;;16.60;9.60;;;19.40;48.70;;;;;;5018481;28;20192;-68
2021/12/30 05:28:23;;;;;;;14.40;8.93;;;19.40;48.60;;;;;;5018728;28;20207;-64
2021/12/30 05:30:51;;;;;;;14.88;8.77;;;19.40;48.60;;;;;;5036269;28;20250;-65
2021/12/30 05:33:19;;;;;;;15.13;9.02;;;19.40;48.50;;;;;;5036399;28;20196;-68
2021/12/30 05:35:46;;;;;;;18.85;9.82;;;19.40;48.50;;;;;;5018410;28;20266;-68
2021/12/30 05:38:15;;;;;;;13.18;8.05;;;19.50;48.60;;;;;;5036323;28;20237;-67
2021/12/30 05:40:43;;;;;;;15.10;8.82;;;19.50;48.50;;;;;;5036296;28;20199;-68
2021/12/30 05:43:10;;;;;;;12.55;8.57;;;19.50;48.60;;;;;;5034867;28;20196;-67
2021/12/30 05:45:37;;;;;;;13.90;8.35;;;19.60;48.60;;;;;;5018514;28;20200;-69
2021/12/30 05:48:06;;;;;;;17.27;9.00;;;19.50;48.80;;;;;;5018491;28;20223;-66
2021/12/30 05:50:33;;;;;;;16.30;8.60;;;19.60;49.40;;;;;;5036052;28;20654;-66
2021/12/30 05:53:01;;;;;;;12.85;7.93;;;19.60;49.10;;;;;;5018128;28;20287;-67
2021/12/30 05:55:29;;;;;;;12.25;7.75;;;19.60;49.20;;;;;;5036318;28;20196;-69
2021/12/30 05:57:56;;;;;;;14.20;8.30;;;19.60;49.30;;;;;;5034683;28;20224;-67
2021/12/30 06:00:24;;;;;;;12.52;7.45;;;19.60;49.10;;;;;;5017911;28;20202;-66
2021/12/30 06:02:51;;;;;;;12.10;7.88;;;19.70;49.70;;;;;;5034881;28;20192;-67
2021/12/30 06:05:20;;;;;;;14.77;8.50;;;19.70;49.20;;;;;;5017902;28;20242;-67
2021/12/30 06:07:48;;;;;;;12.45;8.10;;;19.70;49.10;;;;;;5017726;28;20771;-67
2021/12/30 06:10:15;;;;;;;13.95;8.02;;;19.70;49.00;;;;;;5035508;28;20188;-67
2021/12/30 06:12:43;;;;;;;14.57;8.52;;;19.80;49.20;;;;;;5017756;28;20211;-66
2021/12/30 06:15:11;;;;;;;15.35;7.90;;;19.80;49.90;;;;;;5017838;28;20193;-68
2021/12/30 06:17:38;;;;;;;11.43;7.10;;;19.80;49.40;;;;;;5017810;28;20255;-68
2021/12/30 06:20:06;;;;;;;12.38;8.23;;;19.90;49.20;;;;;;5019148;28;20235;-68
2021/12/30 06:22:35;;;;;;;11.90;7.43;;;19.90;49.00;;;;;;5017723;28;20214;-69
2021/12/30 06:25:03;;;;;;;12.23;7.32;;;19.90;49.20;;;;;;5017750;28;20200;-70
2021/12/30 06:27:29;;;;;;;11.90;6.80;;;20.00;48.80;;;;;;5017766;28;20294;-68
2021/12/30 06:29:56;;;;;;;11.75;7.47;;;20.00;48.70;;;;;;5017648;28;20259;-68
2021/12/30 06:32:23;;;;;;;15.20;7.47;;;19.90;48.50;;;;;;5017672;28;20196;-69
2021/12/30 06:34:50;;;;;;;11.23;7.25;;;20.00;48.50;;;;;;5017688;28;20273;-69
2021/12/30 06:37:17;;;;;;;12.57;7.15;;;20.00;48.30;;;;;;5035117;28;20266;-69
2021/12/30 06:39:46;;;;;;;11.75;7.15;;;20.00;48.20;;;;;;5034170;28;20616;-69
2021/12/30 06:42:13;;;;;;;11.57;7.43;;;20.00;48.10;;;;;;5017581;28;20196;-70
2021/12/30 06:44:41;;;;;;;11.25;7.65;;;20.10;48.10;;;;;;5034062;28;20207;-69
2021/12/30 06:47:09;;;;;;;12.10;7.32;;;20.10;48.70;;;;;;5017880;28;20212;-70
2021/12/30 06:49:37;;;;;;;10.80;6.80;;;20.10;48.00;;;;;;5017885;28;20287;-69
2021/12/30 06:52:05;;;;;;;10.63;6.57;;;20.10;48.10;;;;;;5018573;28;20402;-69
2021/12/30 06:54:32;;;;;;;9.05;6.30;;;20.10;48.00;;;;;;5035341;28;20188;-69
2021/12/30 06:57:02;;;;;;;9.32;5.95;;;20.10;48.10;;;;;;5017811;28;20258;-68
2021/12/30 06:59:30;;;;;;;9.07;6.40;;;20.00;48.00;;;;;;5017809;28;20265;-68
2021/12/30 07:01:57;;;;;;;8.65;5.72;;;20.00;48.00;;;;;;5018053;28;20549;-68
2021/12/30 07:04:25;;;;;;;10.68;6.20;;;20.00;48.10;;;;;;5042475;28;20218;-68
2021/12/30 07:06:52;;;;;;;9.40;6.18;;;20.00;48.30;;;;;;5052372;28;20220;-69
2021/12/30 07:09:19;;;;;;;10.45;6.00;;;20.00;48.30;;;;;;5053829;28;20198;-69
2021/12/30 07:11:48;;;;;;;9.27;6.13;;;20.00;48.50;;;;;;5020791;28;20196;-69
2021/12/30 07:14:18;;;;;;;10.18;6.22;;;20.00;48.30;;;;;;5017339;28;20219;-69
2021/12/30 07:16:45;;;;;;;10.25;5.68;;;20.00;48.40;;;;;;5016892;28;20688;-70
2021/12/30 07:19:12;;;;;;;7.43;5.45;;;20.00;48.50;;;;;;5034422;28;20252;-68
2021/12/30 07:21:39;;;;;;;9.80;6.13;;;20.00;48.40;;;;;;5016813;28;20306;-68
2021/12/30 07:24:07;;;;;;;9.85;6.35;;;20.00;48.40;;;;;;5017108;28;20281;-70
2021/12/30 07:26:35;;;;;;;8.32;5.72;;;20.00;48.30;;;;;;5034503;28;20224;-69
2021/12/30 07:29:01;;;;;;;8.63;5.40;;;20.00;48.30;;;;;;5032792;28;20200;-68
2021/12/30 07:31:31;;;;;;;8.32;5.80;;;20.00;48.30;;;;;;5034350;28;20193;-69
2021/12/30 07:33:58;;;;;;;10.00;6.03;;;20.00;48.20;;;;;;5016710;28;20228;-70
2021/12/30 07:36:26;;;;;;;9.18;6.38;;;20.00;48.30;;;;;;5032414;28;20315;-70
2021/12/30 07:38:53;;;;;;;9.05;5.53;;;20.00;48.20;;;;;;5016605;28;20755;-68
2021/12/30 07:41:20;;;;;;;7.65;5.10;;;20.00;48.30;;;;;;5016130;28;20603;-68
2021/12/30 07:43:47;;;;;;;8.70;5.60;;;20.10;48.40;;;;;;5034034;28;20239;-69
2021/12/30 07:46:14;;;;;;;7.65;5.47;;;20.10;48.50;;;;;;5033942;28;20299;-67
2021/12/30 07:48:43;;;;;;;9.93;5.60;;;20.10;48.40;;;;;;5034032;28;20226;-68
2021/12/30 07:51:10;;;;;;;7.15;5.47;;;20.10;48.30;;;;;;5033505;28;20648;-67
2021/12/30 07:53:39;;;;;;;8.63;5.18;;;20.00;48.40;;;;;;5033624;28;20246;-69
2021/12/30 07:56:07;;;;;;;9.18;5.70;;;20.10;48.50;;;;;;5033616;28;20198;-68
2021/12/30 07:58:34;;;;;;;8.27;5.47;;;20.10;48.40;;;;;;5032278;28;20219;-68
2021/12/30 08:01:01;;;;;;;8.73;5.70;;;20.10;49.10;;;;;;5015804;28;20597;-68
2021/12/30 08:03:28;;;;;;;8.68;5.55;;;20.10;48.30;;;;;;5033479;28;20656;-69
2021/12/30 08:05:56;;;;;;;10.05;5.25;;;20.10;48.40;;;;;;5032106;28;20212;-69
2021/12/30 08:08:23;;;;;;;8.13;5.63;;;20.20;48.60;;;;;;5015947;28;20648;-67
2021/12/30 08:10:51;;;;;;;7.30;4.85;;;20.20;48.50;;;;;;5032819;28;20196;-70
2021/12/30 08:13:19;;;;;;;7.25;4.85;;;20.20;48.40;;;;;;5032285;28;20223;-69
2021/12/30 08:15:46;;;;;;;6.13;4.32;;;20.20;48.50;;;;;;5015848;28;20578;-67
2021/12/30 08:18:14;;;;;;;7.70;5.18;;;20.20;48.50;;;;;;5015381;28;20224;-67
2021/12/30 08:20:41;;;;;;;7.20;4.95;;;20.20;48.50;;;;;;5016068;28;20196;-69
2021/12/30 08:23:09;;;;;;;6.93;5.03;;;20.20;48.60;;;;;;5015116;28;20219;-69
2021/12/30 08:25:37;;;;;;;7.10;5.32;;;20.20;48.50;;;;;;5032477;28;20214;-67
2021/12/30 08:28:04;;;;;;;6.65;4.93;;;20.20;48.50;;;;;;5031586;28;20306;-70
2021/12/30 08:30:31;;;;;;;7.10;4.88;;;20.20;49.10;;;;;;5015441;28;20203;-70
2021/12/30 08:32:59;;;;;;;7.07;4.78;;;20.20;48.50;;;;;;5015016;28;20294;-69
2021/12/30 08:35:26;;;;;;;8.95;4.93;;;20.30;48.60;;;;;;5015047;28;20757;-68
2021/12/30 08:37:54;;;;;;;6.28;4.63;;;20.30;48.40;;;;;;5014958;28;20216;-70
2021/12/30 08:40:22;;;;;;;6.20;4.47;;;20.30;48.40;;;;;;5032897;28;20676;-69
2021/12/30 08:42:49;;;;;;;6.45;4.45;;;20.30;48.30;;;;;;5015513;28;20291;-68
2021/12/30 08:45:18;;;;;;;5.72;4.35;;;20.30;48.50;;;;;;5033020;28;20192;-68
2021/12/30 08:47:46;;;;;;;6.80;4.35;;;20.30;48.40;;;;;;5015203;28;20208;-68
2021/12/30 08:50:14;;;;;;;6.55;4.40;;;20.30;48.50;;;;;;5015152;28;20290;-69
2021/12/30 08:52:42;;;;;;;7.30;4.60;;;20.30;48.50;;;;;;5031602;28;20191;-69
2021/12/30 08:55:09;;;;;;;6.80;4.68;;;20.30;49.00;;;;;;5014893;28;20206;-68
2021/12/30 08:57:40;;;;;;;5.68;4.10;;;20.30;48.30;;;;;;5014946;28;20224;-69
2021/12/30 09:00:08;;;;;;;5.88;4.20;;;20.40;48.50;;;;;;5031261;28;20193;-68
2021/12/30 09:02:36;;;;;;;8.00;4.63;;;20.40;48.30;;;;;;5015121;28;20227;-68
2021/12/30 09:05:03;;;;;;;6.22;4.32;;;20.40;48.50;;;;;;5032599;28;20346;-69
2021/12/30 09:07:30;;;;;;;5.25;4.18;;;20.40;48.30;;;;;;5032520;28;20214;-67
2021/12/30 09:09:58;;;;;;;6.38;4.43;;;20.50;48.40;;;;;;5014817;28;20200;-69
2021/12/30 09:12:25;;;;;;;6.57;4.47;;;20.50;48.50;;;;;;5031238;28;20683;-70
2021/12/30 09:14:53;;;;;;;5.43;4.15;;;20.50;48.50;;;;;;5032576;28;20193;-69
2021/12/30 09:17:21;;;;;;;7.65;4.50;;;20.50;48.50;;;;;;5014396;28;20651;-69
2021/12/30 09:19:48;;;;;;;6.30;4.32;;;20.60;48.10;;;;;;5014828;28;20199;-67
2021/12/30 09:22:15;;;;;;;5.93;4.25;;;20.60;48.20;;;;;;5014771;28;20234;-69
2021/12/30 09:24:42;;;;;;;5.75;4.38;;;20.60;48.10;;;;;;5014732;28;20238;-67
2021/12/30 09:27:09;;;;;;;5.50;3.90;;;20.60;48.00;;;;;;5032257;28;20254;-68
2021/12/30 09:29:36;;;;;;;5.30;3.90;;;20.60;48.20;;;;;;5014557;28;20613;-70
2021/12/30 09:32:05;;;;;;;5.28;4.50;;;20.70;48.30;;;;;;5014620;28;20211;-69
2021/12/30 09:34:32;;;;;;;6.60;4.22;;;20.70;48.20;;;;;;5014431;28;20572;-67
2021/12/30 09:37:00;;;;;;;5.93;4.07;;;20.80;47.70;;;;;;5032813;28;20696;-70
2021/12/30 09:39:27;;;;;;;5.03;4.30;;;20.80;47.70;;;;;;5018469;28;20207;-69
2021/12/30 09:41:54;;;;;;;4.80;4.22;;;20.80;47.80;;;;;;5036285;28;20199;-68
2021/12/30 09:44:21;;;;;;;4.78;3.95;;;20.80;47.30;;;;;;5018542;28;20588;-69
2021/12/30 09:46:49;;;;;;;4.82;4.07;;;20.90;47.60;;;;;;5036089;28;20231;-69
2021/12/30 09:49:18;;;;;;;5.03;3.72;;;20.90;47.40;;;;;;5018372;28;20196;-69
2021/12/30 09:51:45;;;;;;;5.40;4.00;;;20.90;47.20;;;;;;5018363;28;20576;-69
2021/12/30 09:54:12;;;;;;;6.15;4.57;;;21.00;47.30;;;;;;5036168;28;20192;-68
2021/12/30 09:56:39;;;;;;;5.13;3.67;;;21.00;47.50;;;;;;5018193;28;20230;-69
2021/12/30 09:59:07;;;;;;;4.43;3.58;;;21.00;47.40;;;;;;5035596;28;20295;-69
2021/12/30 10:01:36;;;;;;;6.00;4.00;;;21.00;47.80;;;;;;5017871;28;20664;-67
2021/12/30 10:04:04;;;;;;;5.57;3.63;;;21.00;47.10;;;;;;5017733;28;20208;-68
2021/12/30 10:06:32;;;;;;;5.50;3.90;;;21.10;47.60;;;;;;5035480;28;20369;-67
2021/12/30 10:09:02;;;;;;;4.72;3.58;;;21.10;47.30;;;;;;5017544;28;20196;-69
2021/12/30 10:11:29;;;;;;;4.28;3.70;;;21.10;47.30;;;;;;5017576;28;20200;-70
2021/12/30 10:13:57;;;;;;;5.82;4.20;;;21.10;47.40;;;;;;5017603;28;20200;-68
2021/12/30 10:16:25;;;;;;;4.57;4.03;;;21.10;47.30;;;;;;5034963;28;20291;-67
2021/12/30 10:18:54;;;;;;;5.03;3.70;;;21.10;47.50;;;;;;5017368;28;20201;-68
2021/12/30 10:21:22;;;;;;;5.20;3.88;;;21.10;47.60;;;;;;5033796;28;20227;-70
2021/12/30 10:23:52;;;;;;;4.55;3.75;;;21.20;47.20;;;;;;5017400;28;20527;-69
2021/12/30 10:26:19;;;;;;;4.63;3.42;;;21.20;47.40;;;;;;5035071;28;20751;-69
2021/12/30 10:28:46;;;;;;;3.97;3.42;;;21.20;47.70;;;;;;5034990;28;20188;-69
2021/12/30 10:31:19;;;;;;;4.13;3.17;;;21.20;47.70;;;;;;5017147;28;20212;-68
2021/12/30 10:33:48;;;;;;;4.03;3.58;;;21.20;47.70;;;;;;5017411;28;20204;-67
2021/12/30 10:36:16;;;;;;;4.72;3.20;;;21.20;47.80;;;;;;5017313;28;20220;-69
2021/12/30 10:38:43;;;;;;;4.85;3.38;;;21.20;47.90;;;;;;5016956;28;20589;-70
2021/12/30 10:41:11;;;;;;;6.88;3.78;;;21.20;48.00;;;;;;5016925;28;20249;-68
2021/12/30 10:43:45;;;;;;;3.75;3.28;;;21.20;47.90;;;;;;5034757;28;20538;-68
2021/12/30 10:46:14;;;;;;;5.57;3.65;;;21.20;47.20;;;;;;5033762;28;20628;-68
2021/12/30 10:48:59;;;;;;;3.47;3.10;;;21.20;47.80;;;;;;5016372;28;20220;-68
2021/12/30 10:51:32;;;;;;;4.53;3.85;;;21.20;47.80;;;;;;5017111;28;20278;-70
2021/12/30 10:53:59;;;;;;;3.85;3.15;;;21.30;47.70;;;;;;5017369;28;20413;-70
2021/12/30 10:56:32;;;;;;;4.10;3.10;;;21.30;47.80;;;;;;5037263;28;20312;-68
2021/12/30 10:59:13;;;;;;;6.88;4.03;;;21.30;47.60;;;;;;5016938;28;20212;-70
2021/12/30 11:01:41;;;;;;;4.55;3.75;;;21.30;46.80;;;;;;5034569;28;20476;-70
2021/12/30 11:04:08;;;;;;;3.92;3.53;;;21.40;47.50;;;;;;5016631;28;20203;-68
2021/12/30 11:06:36;;;;;;;5.13;3.67;;;21.30;46.80;;;;;;5016481;28;20640;-68
2021/12/30 11:09:06;;;;;;;5.35;3.40;;;21.40;46.90;;;;;;5034260;28;20216;-70
2021/12/30 11:11:35;;;;;;;3.97;3.30;;;21.40;46.70;;;;;;5016423;28;20216;-69
2021/12/30 11:14:07;;;;;;;4.55;3.38;;;21.40;46.90;;;;;;5016343;28;20323;-69
2021/12/30 11:16:35;;;;;;;4.25;3.55;;;21.40;46.90;;;;;;5016100;28;20224;-69
2021/12/30 11:19:02;;;;;;;4.20;3.17;;;21.40;46.60;;;;;;5016393;28;20216;-70
2021/12/30 11:21:40;;;;;;;4.38;3.70;;;21.40;46.70;;;;;;5032708;28;20204;-68
2021/12/30 11:24:08;;;;;;;4.20;3.10;;;21.50;46.50;;;;;;5034133;28;20173;-68
2021/12/30 11:26:36;;;;;;;3.97;3.22;;;21.50;47.60;;;;;;5016211;28;20220;-69
2021/12/30 11:29:04;;;;;;;3.40;3.10;;;21.50;47.10;;;;;;5032676;28;20192;-69
2021/12/30 11:31:32;;;;;;;4.57;3.38;;;21.50;47.40;;;;;;5016364;28;20204;-69
2021/12/30 11:33:59;;;;;;;4.22;3.45;;;21.60;47.10;;;;;;5015957;28;20203;-69
2021/12/30 11:36:28;;;;;;;4.18;3.05;;;21.60;47.10;;;;;;5033550;28;20790;-70
2021/12/30 11:38:56;;;;;;;4.07;3.05;;;21.60;47.10;;;;;;5016030;28;20211;-69
2021/12/30 11:41:24;;;;;;;3.58;3.13;;;21.60;47.10;;;;;;5033371;28;20188;-67
2021/12/30 11:43:53;;;;;;;3.55;2.95;;;21.60;47.10;;;;;;5015928;28;20676;-68
2021/12/30 11:46:42;;;;;;;3.30;3.00;;;21.60;46.40;;;;;;5032341;28;20291;-68
2021/12/30 11:49:11;;;;;;;3.47;3.17;;;21.60;46.90;;;;;;5015864;28;20192;-69
2021/12/30 11:51:44;;;;;;;3.78;3.40;;;21.70;46.90;;;;;;5033530;28;20271;-69
2021/12/30 11:54:36;;;;;;;4.10;3.33;;;21.60;46.80;;;;;;5033713;28;20200;-70
2021/12/30 11:57:25;;;;;;;3.75;3.10;;;21.70;46.30;;;;;;5033345;28;20211;-69
2021/12/30 11:59:54;;;;;;;4.80;3.30;;;21.70;47.00;;;;;;5014773;28;20229;-68
2021/12/30 12:02:34;;;;;;;3.88;3.10;;;21.70;46.70;;;;;;5015699;28;20673;-67
2021/12/30 12:05:39;;;;;;;3.10;2.80;;;21.80;46.90;;;;;;5033624;28;20188;-69
2021/12/30 12:08:06;;;;;;;4.20;3.30;;;21.80;47.10;;;;;;5033376;28;20207;-69
2021/12/30 12:10:33;;;;;;;3.85;3.13;;;21.80;46.40;;;;;;5015475;28;20197;-69
2021/12/30 12:13:34;;;;;;;3.75;2.97;;;21.80;46.30;;;;;;5015409;28;20665;-68
2021/12/30 12:16:03;;;;;;;3.47;2.90;;;21.80;46.20;;;;;;5031897;28;20200;-69
2021/12/30 12:18:30;;;;;;;3.15;2.83;;;21.90;46.30;;;;;;5033074;28;20302;-69
2021/12/30 12:20:58;;;;;;;3.35;2.90;;;21.80;46.00;;;;;;5016958;28;20199;-68
2021/12/30 12:23:33;;;;;;;3.00;2.70;;;21.80;45.90;;;;;;5033243;28;20192;-66
2021/12/30 12:26:08;;;;;;;3.15;2.78;;;21.80;46.20;;;;;;5015413;28;20195;-67
2021/12/30 12:28:35;;;;;;;2.95;2.65;;;21.80;46.20;;;;;;5032971;28;20187;-69
2021/12/30 12:31:06;;;;;;;3.03;2.63;;;21.80;46.20;;;;;;5015393;28;20261;-67
2021/12/30 12:33:34;;;;;;;3.67;2.70;;;21.80;46.20;;;;;;5031750;28;20188;-69
2021/12/30 12:36:01;;;;;;;3.08;2.75;;;21.90;46.20;;;;;;5033199;28;20267;-67
2021/12/30 12:38:39;;;;;;;2.40;2.20;;;21.90;46.10;;;;;;5033423;28;20208;-69
2021/12/30 12:41:17;;;;;;;2.83;2.53;;;21.80;46.40;;;;;;5015751;28;20228;-68
2021/12/30 12:43:45;;;;;;;3.28;2.78;;;21.90;46.20;;;;;;5033333;28;20192;-66